createdAt,value
2023-04-28T00:01:28.228Z,8.50
2023-04-28T00:03:55.645Z,8.63
2023-04-28T00:06:22.503Z,7.87
2023-04-28T00:08:49.154Z,8.33
2023-04-28T00:11:15.930Z,9.43
2023-04-28T00:13:42.504Z,9.57
2023-04-28T00:16:09.246Z,9.57
2023-04-28T00:18:35.910Z,8.43
2023-04-28T00:21:02.596Z,9.10
2023-04-28T00:23:29.313Z,10.23
2023-04-28T00:25:57.362Z,9.07
2023-04-28T00:28:33.459Z,9.10
2023-04-28T00:31:00.705Z,9.50
2023-04-28T00:33:27.313Z,8.77
2023-04-28T00:36:01.191Z,8.90
2023-04-28T00:38:28.142Z,8.90
2023-04-28T00:40:54.809Z,8.50
2023-04-28T00:43:21.653Z,7.30
2023-04-28T00:45:50.090Z,8.93
2023-04-28T00:48:17.332Z,9.07
2023-04-28T00:50:45.433Z,8.97
2023-04-28T00:53:12.953Z,7.63
2023-04-28T00:55:39.861Z,7.70
2023-04-28T00:58:07.002Z,8.63
2023-04-28T01:00:34.291Z,9.00
2023-04-28T01:03:01.560Z,8.87
2023-04-28T01:05:30.210Z,8.87
2023-04-28T01:07:56.829Z,8.60
2023-04-28T01:10:23.489Z,8.70
2023-04-28T01:12:50.267Z,9.10
2023-04-28T01:15:19.134Z,8.03
2023-04-28T01:17:49.166Z,7.60
2023-04-28T01:20:15.939Z,9.37
2023-04-28T01:22:42.731Z,8.83
2023-04-28T01:25:09.480Z,8.53
2023-04-28T01:27:36.111Z,7.97
2023-04-28T01:30:02.928Z,8.20
2023-04-28T01:32:29.714Z,8.67
2023-04-28T01:34:56.474Z,7.73
2023-04-28T01:37:23.266Z,8.40
2023-04-28T01:39:49.868Z,7.80
2023-04-28T01:42:16.488Z,7.70
2023-04-28T01:44:43.194Z,7.23
2023-04-28T01:47:09.801Z,7.93
2023-04-28T01:49:36.383Z,9.00
2023-04-28T01:52:03.275Z,7.90
2023-04-28T01:54:29.991Z,8.10
2023-04-28T01:56:56.610Z,8.10
2023-04-28T01:59:23.281Z,7.20
2023-04-28T02:01:49.961Z,6.97
2023-04-28T02:04:17.026Z,8.10
2023-04-28T02:06:43.903Z,7.53
2023-04-28T02:09:10.632Z,7.40
2023-04-28T02:11:37.232Z,7.87
2023-04-28T02:14:03.913Z,8.07
2023-04-28T02:16:30.669Z,8.37
2023-04-28T02:18:57.375Z,7.87
2023-04-28T02:21:23.968Z,7.40
2023-04-28T02:23:50.912Z,7.60
2023-04-28T02:26:17.565Z,8.13
2023-04-28T02:28:44.224Z,6.90
2023-04-28T02:31:11.848Z,7.93
2023-04-28T02:33:38.761Z,8.97
2023-04-28T02:36:06.274Z,8.60
2023-04-28T02:38:32.951Z,9.97
2023-04-28T02:41:01.126Z,8.57
2023-04-28T02:43:28.649Z,8.33
2023-04-28T02:45:55.574Z,7.90
2023-04-28T02:48:22.406Z,8.60
2023-04-28T02:50:49.066Z,8.53
2023-04-28T02:53:15.844Z,8.47
2023-04-28T02:55:42.631Z,9.47
2023-04-28T02:58:09.534Z,8.70
2023-04-28T03:00:36.325Z,8.37
2023-04-28T03:03:03.198Z,8.80
2023-04-28T03:05:30.106Z,8.50
2023-04-28T03:07:56.815Z,8.30
2023-04-28T03:10:23.466Z,7.17
2023-04-28T03:12:50.071Z,8.20
2023-04-28T03:15:16.839Z,8.23
2023-04-28T03:17:43.605Z,8.60
2023-04-28T03:20:10.923Z,8.57
2023-04-28T03:22:37.533Z,8.27
2023-04-28T03:25:05.913Z,7.33
2023-04-28T03:27:32.570Z,7.60
2023-04-28T03:29:59.257Z,8.07
2023-04-28T03:32:25.890Z,8.20
2023-04-28T03:34:52.525Z,7.43
2023-04-28T03:37:19.100Z,7.27
2023-04-28T03:39:45.904Z,7.70
2023-04-28T03:42:12.519Z,8.37
2023-04-28T03:44:39.121Z,7.30
2023-04-28T03:47:05.812Z,7.23
2023-04-28T03:49:32.586Z,7.10
2023-04-28T03:51:59.166Z,7.67
2023-04-28T03:54:26.005Z,6.63
2023-04-28T03:56:52.707Z,6.10
2023-04-28T03:59:19.332Z,7.47
2023-04-28T04:01:46.106Z,8.23
2023-04-28T04:04:13.220Z,7.40
2023-04-28T04:06:40.035Z,6.80
2023-04-28T04:09:06.849Z,6.43
2023-04-28T04:11:33.450Z,5.90
2023-04-28T04:14:00.067Z,6.30
2023-04-28T04:16:27.022Z,6.43
2023-04-28T04:18:53.683Z,7.07
2023-04-28T04:21:20.357Z,6.90
2023-04-28T04:23:46.951Z,6.67
2023-04-28T04:26:13.707Z,6.57
2023-04-28T04:28:40.367Z,7.10
2023-04-28T04:31:08.420Z,7.23
2023-04-28T04:33:35.344Z,6.30
2023-04-28T04:36:01.980Z,6.53
2023-04-28T04:38:28.620Z,6.33
2023-04-28T04:40:55.211Z,6.40
2023-04-28T04:43:21.889Z,6.20
2023-04-28T04:45:48.982Z,5.90
2023-04-28T04:48:15.737Z,5.90
2023-04-28T04:50:43.621Z,6.03
2023-04-28T04:53:13.318Z,6.80
2023-04-28T04:55:42.303Z,6.70
2023-04-28T04:58:09.000Z,6.47
2023-04-28T05:00:37.328Z,5.97
2023-04-28T05:03:06.276Z,6.33
2023-04-28T05:05:33.221Z,6.17
2023-04-28T05:08:00.120Z,4.63
2023-04-28T05:10:27.423Z,6.30
2023-04-28T05:12:54.440Z,5.70
2023-04-28T05:15:21.139Z,5.07
2023-04-28T05:17:47.942Z,4.80
2023-04-28T05:20:14.943Z,5.00
2023-04-28T05:22:41.833Z,5.07
2023-04-28T05:25:09.154Z,4.43
2023-04-28T05:27:39.163Z,4.97
2023-04-28T05:30:10.421Z,4.87
2023-04-28T05:32:37.910Z,4.93
2023-04-28T05:35:04.972Z,5.50
2023-04-28T05:37:31.603Z,4.80
2023-04-28T05:39:58.295Z,4.07
2023-04-28T05:42:24.915Z,4.40
2023-04-28T05:44:51.490Z,4.10
2023-04-28T05:47:18.259Z,5.17
2023-04-28T05:49:44.897Z,4.90
2023-04-28T05:52:11.584Z,4.40
2023-04-28T05:54:38.155Z,4.50
2023-04-28T05:57:05.152Z,6.93
2023-04-28T05:59:32.274Z,3.60
2023-04-28T06:01:58.976Z,4.10
2023-04-28T06:04:26.484Z,4.30
2023-04-28T06:06:53.498Z,4.20
2023-04-28T06:09:20.270Z,3.70
2023-04-28T06:11:47.107Z,4.53
2023-04-28T06:14:13.773Z,3.67
2023-04-28T06:16:40.831Z,3.30
2023-04-28T06:19:07.772Z,3.00
2023-04-28T06:21:34.372Z,4.03
2023-04-28T06:24:02.004Z,3.60
2023-04-28T06:26:29.188Z,2.73
2023-04-28T06:28:55.892Z,3.37
2023-04-28T06:31:22.636Z,3.17
2023-04-28T06:33:49.358Z,3.80
2023-04-28T06:36:17.965Z,3.10
2023-04-28T06:38:45.244Z,3.03
2023-04-28T06:41:12.113Z,3.17
2023-04-28T06:43:38.782Z,3.20
2023-04-28T06:46:05.608Z,2.90
2023-04-28T06:48:32.385Z,2.67
2023-04-28T06:50:59.019Z,3.37
2023-04-28T06:53:25.646Z,3.37
2023-04-28T06:55:52.463Z,3.10
2023-04-28T06:58:19.437Z,3.10
2023-04-28T07:00:46.095Z,2.43
2023-04-28T07:03:13.045Z,2.73
2023-04-28T07:05:39.874Z,2.70
2023-04-28T07:08:06.795Z,3.27
2023-04-28T07:10:33.429Z,3.63
2023-04-28T07:13:00.156Z,3.10
2023-04-28T07:15:27.702Z,3.67
2023-04-28T07:17:54.440Z,3.47
2023-04-28T07:20:21.392Z,3.23
2023-04-28T07:22:48.230Z,2.40
2023-04-28T07:25:15.205Z,3.43
2023-04-28T07:27:42.028Z,2.67
2023-04-28T07:30:19.028Z,3.13
2023-04-28T07:32:52.612Z,3.23
2023-04-28T07:35:19.316Z,2.77
2023-04-28T07:37:46.303Z,3.00
2023-04-28T07:40:13.060Z,3.03
2023-04-28T07:42:39.695Z,3.70
2023-04-28T07:45:06.925Z,3.80
2023-04-28T07:47:33.706Z,3.37
2023-04-28T07:50:03.231Z,3.30
2023-04-28T07:52:29.977Z,3.70
2023-04-28T07:54:56.781Z,3.50
2023-04-28T07:57:23.450Z,2.80
2023-04-28T07:59:50.526Z,3.73
2023-04-28T08:02:19.499Z,3.30
2023-04-28T08:04:46.738Z,3.20
2023-04-28T08:07:13.932Z,3.17
2023-04-28T08:09:42.851Z,3.40
2023-04-28T08:12:09.639Z,3.17
2023-04-28T08:14:36.249Z,3.20
2023-04-28T08:17:02.872Z,2.53
2023-04-28T08:19:29.670Z,3.90
2023-04-28T08:21:56.326Z,3.40
2023-04-28T08:24:23.109Z,2.50
2023-04-28T08:26:49.851Z,2.70
2023-04-28T08:29:16.857Z,2.87
2023-04-28T08:31:43.726Z,3.60
2023-04-28T08:34:10.370Z,3.30
2023-04-28T08:36:37.061Z,2.60
2023-04-28T08:39:05.099Z,3.80
2023-04-28T08:41:33.038Z,2.70
2023-04-28T08:43:59.666Z,3.00
2023-04-28T08:46:27.967Z,2.90
2023-04-28T08:49:00.338Z,3.53
2023-04-28T08:51:34.527Z,3.50
2023-04-28T08:54:18.854Z,3.10
2023-04-28T08:56:52.499Z,3.77
2023-04-28T08:59:19.707Z,2.63
2023-04-28T09:01:49.561Z,3.63
2023-04-28T09:04:18.335Z,3.50
2023-04-28T09:06:46.417Z,2.70
2023-04-28T09:09:20.135Z,3.00
2023-04-28T09:11:58.289Z,3.50
2023-04-28T09:14:25.793Z,3.67
2023-04-28T09:16:52.918Z,3.13
2023-04-28T09:19:19.823Z,3.30
2023-04-28T09:21:57.442Z,3.43
2023-04-28T09:24:35.115Z,3.87
2023-04-28T09:27:04.174Z,3.40
2023-04-28T09:29:32.221Z,3.50
2023-04-28T09:32:20.301Z,3.70
2023-04-28T09:34:49.753Z,2.70
2023-04-28T09:37:32.825Z,3.77
2023-04-28T09:40:06.656Z,3.30
2023-04-28T09:42:39.978Z,4.17
2023-04-28T09:45:14.145Z,3.10
2023-04-28T09:47:43.494Z,3.87
2023-04-28T09:50:14.602Z,3.40
2023-04-28T09:52:42.661Z,4.10
2023-04-28T09:55:10.991Z,3.53
2023-04-28T09:57:39.143Z,3.63
2023-04-28T10:00:09.129Z,3.60
2023-04-28T10:05:11.695Z,3.87
2023-04-28T10:07:40.122Z,3.40
2023-04-28T10:10:07.969Z,4.10
2023-04-28T10:12:37.991Z,4.10
2023-04-28T10:15:05.397Z,3.73
2023-04-28T10:17:32.985Z,4.50
2023-04-28T10:20:00.572Z,4.10
2023-04-28T10:23:10.678Z,4.50
2023-04-28T10:25:38.619Z,3.80
2023-04-28T10:28:07.220Z,4.40
2023-04-28T10:30:35.009Z,3.60
2023-04-28T10:33:14.098Z,3.80
2023-04-28T10:35:47.933Z,4.90
2023-04-28T10:38:16.525Z,3.70
2023-04-28T10:41:01.022Z,4.60
2023-04-28T10:43:30.989Z,4.17
2023-04-28T10:46:00.660Z,3.73
2023-04-28T10:48:30.853Z,4.40
2023-04-28T10:51:06.829Z,3.97
2023-04-28T10:53:45.750Z,4.80
2023-04-28T10:56:19.616Z,4.07
2023-04-28T10:58:50.794Z,5.13
2023-04-28T11:01:26.404Z,4.80
2023-04-28T11:04:01.107Z,4.20
2023-04-28T11:06:29.924Z,4.10
2023-04-28T11:09:00.451Z,4.53
2023-04-28T11:11:32.710Z,4.03
2023-04-28T11:14:18.220Z,4.30
2023-04-28T11:16:56.136Z,4.37
2023-04-28T11:19:24.688Z,4.07
2023-04-28T11:21:53.479Z,5.80
2023-04-28T11:24:20.230Z,4.87
2023-04-28T11:26:47.220Z,4.20
2023-04-28T11:29:15.317Z,4.87
2023-04-28T11:31:50.962Z,4.00
2023-04-28T11:34:21.786Z,4.10
2023-04-28T11:36:48.412Z,5.50
2023-04-28T11:39:15.431Z,4.13
2023-04-28T11:41:45.825Z,5.00
2023-04-28T11:44:14.529Z,5.37
2023-04-28T11:46:56.230Z,4.67
2023-04-28T11:49:31.304Z,6.03
2023-04-28T11:52:03.972Z,4.30
2023-04-28T11:54:30.570Z,3.87
2023-04-28T11:56:58.437Z,4.70
2023-04-28T11:59:33.896Z,4.40
2023-04-28T12:02:06.025Z,4.33
2023-04-28T12:04:37.704Z,4.60
2023-04-28T12:07:18.528Z,5.00
2023-04-28T12:09:48.163Z,4.53
2023-04-28T12:12:40.074Z,4.63
2023-04-28T12:15:14.275Z,4.50
2023-04-28T12:17:42.298Z,4.30
2023-04-28T12:20:11.694Z,3.80
2023-04-28T12:22:49.149Z,4.80
2023-04-28T12:25:17.770Z,4.80
2023-04-28T12:28:04.727Z,5.57
2023-04-28T12:30:33.790Z,4.10
2023-04-28T12:33:00.776Z,6.00
2023-04-28T12:35:29.033Z,4.07
2023-04-28T12:37:56.851Z,5.20
2023-04-28T12:40:24.348Z,4.03
2023-04-28T12:42:51.418Z,4.63
2023-04-28T12:45:18.286Z,4.87
2023-04-28T12:47:44.888Z,4.67
2023-04-28T12:50:11.885Z,5.17
2023-04-28T12:52:38.563Z,5.00
2023-04-28T12:55:05.712Z,6.00
2023-04-28T12:57:32.435Z,6.07
2023-04-28T12:59:59.036Z,10.77
2023-04-28T13:02:25.885Z,6.10
2023-04-28T13:04:53.302Z,5.17
2023-04-28T13:07:20.279Z,5.43
2023-04-28T13:09:47.597Z,4.97
2023-04-28T13:12:14.895Z,5.37
2023-04-28T13:14:42.005Z,5.30
2023-04-28T13:17:09.991Z,4.87
2023-04-28T13:19:36.913Z,5.10
2023-04-28T13:22:05.244Z,4.60
2023-04-28T13:24:33.524Z,5.30
2023-04-28T13:27:00.674Z,4.50
2023-04-28T13:29:27.479Z,4.33
2023-04-28T13:31:54.281Z,4.70
2023-04-28T13:34:21.087Z,5.13
2023-04-28T13:36:50.790Z,5.33
2023-04-28T13:39:20.108Z,4.90
2023-04-28T13:41:46.879Z,4.90
2023-04-28T13:44:13.979Z,5.40
2023-04-28T13:46:40.682Z,6.10
2023-04-28T13:49:09.558Z,5.83
2023-04-28T13:51:36.464Z,5.37
2023-04-28T13:54:08.695Z,5.87
2023-04-28T13:56:36.444Z,5.90
2023-04-28T13:59:03.744Z,5.97
2023-04-28T14:01:30.388Z,5.20
2023-04-28T14:03:57.300Z,7.93
2023-04-28T14:06:24.163Z,6.17
2023-04-28T14:08:50.817Z,5.80
2023-04-28T14:11:17.493Z,5.83
2023-04-28T14:13:44.230Z,6.40
2023-04-28T14:16:11.570Z,6.13
2023-04-28T14:18:38.989Z,6.10
2023-04-28T14:21:08.216Z,6.50
2023-04-28T14:23:38.363Z,5.93
2023-04-28T14:26:05.166Z,6.10
2023-04-28T14:28:31.762Z,8.00
2023-04-28T14:30:58.398Z,8.67
2023-04-28T14:33:25.038Z,5.57
2023-04-28T14:35:51.703Z,5.23
2023-04-28T14:38:18.549Z,5.60
2023-04-28T14:40:45.202Z,6.37
2023-04-28T14:43:11.864Z,6.80
2023-04-28T14:45:38.617Z,6.13
2023-04-28T14:48:07.046Z,5.07
2023-04-28T14:50:33.859Z,6.57
2023-04-28T14:53:05.374Z,6.53
2023-04-28T14:55:32.822Z,7.13
2023-04-28T14:57:59.433Z,6.13
2023-04-28T15:00:26.040Z,6.80
2023-04-28T15:02:53.180Z,6.67
2023-04-28T15:05:20.129Z,6.50
2023-04-28T15:07:46.944Z,5.70
2023-04-28T15:10:13.793Z,7.53
2023-04-28T15:12:40.480Z,7.17
2023-04-28T15:15:07.866Z,10.07
2023-04-28T15:17:34.584Z,6.73
2023-04-28T15:20:01.357Z,6.87
2023-04-28T15:22:27.989Z,6.80
2023-04-28T15:24:55.798Z,7.60
2023-04-28T15:27:23.161Z,9.27
2023-04-28T15:29:50.642Z,6.70
2023-04-28T15:32:17.457Z,9.17
2023-04-28T15:34:44.218Z,8.70
2023-04-28T15:37:41.536Z,7.33
2023-04-28T15:40:10.241Z,6.50
2023-04-28T15:42:37.936Z,7.10
2023-04-28T15:45:05.559Z,6.50
2023-04-28T15:47:32.979Z,7.10
2023-04-28T15:49:59.834Z,8.60
2023-04-28T15:52:27.082Z,6.10
2023-04-28T15:54:55.913Z,6.80
2023-04-28T15:57:22.702Z,7.30
2023-04-28T15:59:49.492Z,6.33
2023-04-28T16:02:16.533Z,7.90
2023-04-28T16:04:43.318Z,7.10
2023-04-28T16:07:10.196Z,6.10
2023-04-28T16:09:36.823Z,7.47
2023-04-28T16:12:04.319Z,6.47
2023-04-28T16:14:31.144Z,4.80
2023-04-28T16:16:57.968Z,6.20
2023-04-28T16:19:25.893Z,7.57
2023-04-28T16:21:52.650Z,6.27
2023-04-28T16:24:22.167Z,6.17
2023-04-28T16:26:49.923Z,6.40
2023-04-28T16:29:16.617Z,5.80
2023-04-28T16:31:45.197Z,6.73
2023-04-28T16:34:12.311Z,7.70
2023-04-28T16:36:40.102Z,5.53
2023-04-28T16:39:07.134Z,6.07
2023-04-28T16:41:33.775Z,5.70
2023-04-28T16:44:00.868Z,6.50
2023-04-28T16:46:27.657Z,6.40
2023-04-28T16:48:54.290Z,6.30
2023-04-28T16:51:20.908Z,6.70
2023-04-28T16:53:47.544Z,7.00
2023-04-28T16:56:14.182Z,8.10
2023-04-28T16:58:40.981Z,12.23
2023-04-28T17:01:07.951Z,6.17
2023-04-28T17:03:41.012Z,7.40
2023-04-28T17:06:08.356Z,6.43
2023-04-28T17:08:35.255Z,6.77
2023-04-28T17:11:04.136Z,8.80
2023-04-28T17:13:34.066Z,7.30
2023-04-28T17:16:01.126Z,8.20
2023-04-28T17:18:28.321Z,8.47
2023-04-28T17:20:56.073Z,8.30
2023-04-28T17:23:22.836Z,7.80
2023-04-28T17:25:49.458Z,7.83
2023-04-28T17:28:16.190Z,9.20
2023-04-28T17:30:47.198Z,9.00
2023-04-28T17:33:14.140Z,9.10
2023-04-28T17:35:40.805Z,10.80
2023-04-28T17:38:07.533Z,9.27
2023-04-28T17:40:34.156Z,10.50
2023-04-28T17:43:00.997Z,10.83
2023-04-28T17:45:27.782Z,10.07
2023-04-28T17:47:56.195Z,11.83
2023-04-28T17:50:22.930Z,10.97
2023-04-28T17:52:49.875Z,11.10
2023-04-28T17:55:16.580Z,10.40
2023-04-28T17:57:43.202Z,10.50
2023-04-28T18:00:12.139Z,11.93
2023-04-28T18:02:38.870Z,11.70
2023-04-28T18:05:07.250Z,11.37
2023-04-28T18:07:33.950Z,11.80
2023-04-28T18:10:00.979Z,11.53
2023-04-28T18:12:28.216Z,12.27
2023-04-28T18:14:54.951Z,12.97
2023-04-28T18:17:23.170Z,13.20
2023-04-28T18:19:52.205Z,12.00
2023-04-28T18:22:18.964Z,13.73
2023-04-28T18:24:46.057Z,12.97
2023-04-28T18:27:12.687Z,13.57
2023-04-28T18:29:39.570Z,13.50
2023-04-28T18:32:06.784Z,13.10
2023-04-28T18:34:33.524Z,14.50
2023-04-28T18:37:00.295Z,14.00
2023-04-28T18:39:26.916Z,13.97
2023-04-28T18:41:53.563Z,13.73
2023-04-28T18:44:20.468Z,12.57
2023-04-28T18:46:47.160Z,33.40
2023-04-28T18:49:14.624Z,55.30
2023-04-28T18:51:41.256Z,23.50
2023-04-28T18:54:08.169Z,15.03
2023-04-28T18:56:35.054Z,15.80
2023-04-28T18:59:04.153Z,15.77
2023-04-28T19:01:30.898Z,16.80
2023-04-28T19:03:58.347Z,17.97
2023-04-28T19:06:25.586Z,16.03
2023-04-28T19:08:52.433Z,16.43
2023-04-28T19:11:19.186Z,17.30
2023-04-28T19:13:45.811Z,15.20
2023-04-28T19:16:12.712Z,14.93
2023-04-28T19:18:39.724Z,16.10
2023-04-28T19:21:06.426Z,16.40
2023-04-28T19:23:33.718Z,16.80
2023-04-28T19:26:00.692Z,16.60
2023-04-28T19:28:28.765Z,15.33
2023-04-28T19:30:59.211Z,16.00
2023-04-28T19:33:28.255Z,15.77
2023-04-28T19:35:55.397Z,16.67
2023-04-28T19:38:23.199Z,16.27
2023-04-28T19:40:53.144Z,16.00
2023-04-28T19:43:19.772Z,16.73
2023-04-28T19:45:47.046Z,17.40
2023-04-28T19:48:14.413Z,15.30
2023-04-28T19:50:42.157Z,15.60
2023-04-28T19:53:09.401Z,16.27
2023-04-28T19:55:36.882Z,16.27
2023-04-28T19:58:03.945Z,14.03
2023-04-28T20:00:32.630Z,17.37
2023-04-28T20:03:00.012Z,15.07
2023-04-28T20:05:27.022Z,15.00
2023-04-28T20:07:56.175Z,15.67
2023-04-28T20:10:23.705Z,14.23
2023-04-28T20:12:50.364Z,14.93
2023-04-28T20:15:18.499Z,14.40
2023-04-28T20:17:46.231Z,14.57
2023-04-28T20:20:13.070Z,13.00
2023-04-28T20:22:40.951Z,15.00
2023-04-28T20:25:10.252Z,14.83
2023-04-28T20:27:37.561Z,15.30
2023-04-28T20:30:05.145Z,14.50
2023-04-28T20:32:31.862Z,16.17
2023-04-28T20:34:58.547Z,14.77
2023-04-28T20:37:26.355Z,17.20
2023-04-28T20:39:53.381Z,14.47
2023-04-28T20:42:20.062Z,13.90
2023-04-28T20:44:46.695Z,12.90
2023-04-28T20:47:14.071Z,15.20
2023-04-28T20:49:41.984Z,14.30
2023-04-28T20:52:08.664Z,15.57
2023-04-28T20:54:36.128Z,15.33
2023-04-28T20:57:04.679Z,14.83
2023-04-28T20:59:32.754Z,13.60
2023-04-28T21:02:00.570Z,15.07
2023-04-28T21:04:28.220Z,15.03
2023-04-28T21:06:55.458Z,16.40
2023-04-28T21:09:24.882Z,14.00
2023-04-28T21:11:51.699Z,14.90
2023-04-28T21:14:18.395Z,14.23
2023-04-28T21:16:45.108Z,14.07
2023-04-28T21:19:11.794Z,15.47
2023-04-28T21:21:38.745Z,14.23
2023-04-28T21:24:06.084Z,14.30
2023-04-28T21:26:32.946Z,15.37
2023-04-28T21:28:59.886Z,14.27
2023-04-28T21:31:26.646Z,14.23
2023-04-28T21:33:53.508Z,15.77
2023-04-28T21:36:20.233Z,15.40
2023-04-28T21:38:46.888Z,15.10
2023-04-28T21:41:13.538Z,14.60
2023-04-28T21:43:40.448Z,15.40
2023-04-28T21:46:07.274Z,15.60
2023-04-28T21:48:33.979Z,16.47
2023-04-28T21:51:01.241Z,13.97
2023-04-28T21:53:28.672Z,13.63
2023-04-28T21:55:55.319Z,15.07
2023-04-28T21:58:21.918Z,15.10
2023-04-28T22:00:48.620Z,13.93
2023-04-28T22:03:15.737Z,13.40
2023-04-28T22:05:44.237Z,13.53
2023-04-28T22:08:11.117Z,13.90
2023-04-28T22:10:38.031Z,13.87
2023-04-28T22:13:05.446Z,11.57
2023-04-28T22:15:32.856Z,12.77
2023-04-28T22:17:59.632Z,12.40
2023-04-28T22:20:26.440Z,11.93
2023-04-28T22:22:53.913Z,12.73
2023-04-28T22:25:20.654Z,12.43
2023-04-28T22:27:47.465Z,13.10
2023-04-28T22:30:14.800Z,12.30
2023-04-28T22:32:44.853Z,12.40
2023-04-28T22:35:12.680Z,9.97
2023-04-28T22:37:39.933Z,11.63
2023-04-28T22:40:08.469Z,10.33
2023-04-28T22:42:39.719Z,12.20
2023-04-28T22:45:07.166Z,13.97
2023-04-28T22:47:34.619Z,11.00
2023-04-28T22:50:05.593Z,11.87
2023-04-28T22:52:32.927Z,10.50
2023-04-28T22:54:59.664Z,11.47
2023-04-28T22:57:26.433Z,11.00
2023-04-28T22:59:53.518Z,10.10
2023-04-28T23:02:20.425Z,9.30
2023-04-28T23:04:47.139Z,10.97
2023-04-28T23:07:13.784Z,9.87
2023-04-28T23:09:40.556Z,11.83
2023-04-28T23:12:07.306Z,10.80
2023-04-28T23:14:34.229Z,10.97
2023-04-28T23:17:00.930Z,10.30
2023-04-28T23:19:27.609Z,9.67
2023-04-28T23:21:54.458Z,11.10
2023-04-28T23:24:21.252Z,11.20
2023-04-28T23:26:47.962Z,10.20
2023-04-28T23:29:14.694Z,13.00
2023-04-28T23:31:41.470Z,10.17
2023-04-28T23:34:08.691Z,10.13
2023-04-28T23:36:36.056Z,11.23
2023-04-28T23:39:02.707Z,10.33
2023-04-28T23:41:29.428Z,10.20
2023-04-28T23:43:56.654Z,10.67
2023-04-28T23:46:23.416Z,13.33
2023-04-28T23:48:50.016Z,9.87
2023-04-28T23:51:16.661Z,10.13
2023-04-28T23:53:43.487Z,11.77
2023-04-28T23:56:10.152Z,10.77
2023-04-28T23:58:37.731Z,11.73
